createdAt,value
2018-02-10T00:09:26.317Z,113.07
2018-02-10T00:19:27.843Z,96.63
2018-02-10T00:29:29.418Z,98.80
2018-02-10T00:39:31.027Z,102.50
2018-02-10T00:49:32.615Z,99.07
2018-02-10T00:59:34.192Z,82.17
2018-02-10T01:09:36.467Z,91.00
2018-02-10T01:19:37.986Z,98.43
2018-02-10T01:29:39.492Z,103.97
2018-02-10T01:39:41.008Z,115.00
2018-02-10T01:49:43.375Z,118.93
2018-02-10T01:59:44.884Z,91.83
2018-02-10T02:09:46.391Z,108.93
2018-02-10T02:19:47.917Z,98.07
2018-02-10T02:29:50.153Z,95.37
2018-02-10T02:39:51.695Z,82.90
2018-02-10T02:49:53.341Z,110.17
2018-02-10T02:59:55.645Z,98.33
2018-02-10T03:09:57.264Z,88.03
2018-02-10T03:19:59.529Z,89.60
2018-02-10T03:30:01.005Z,110.40
2018-02-10T03:40:02.518Z,77.90
2018-02-10T03:50:04.037Z,85.63
2018-02-10T04:00:05.622Z,93.63
2018-02-10T04:10:07.145Z,86.97
2018-02-10T04:20:08.704Z,100.33
2018-02-10T04:30:10.242Z,96.73
2018-02-10T04:40:11.795Z,80.30
2018-02-10T04:50:13.320Z,81.50
2018-02-10T05:00:14.864Z,85.50
2018-02-10T05:10:17.114Z,87.60
2018-02-10T05:20:18.727Z,95.17
2018-02-10T05:30:20.275Z,74.17
2018-02-10T05:40:21.796Z,89.17
2018-02-10T05:50:23.567Z,87.23
2018-02-10T06:00:25.060Z,92.97
2018-02-10T06:10:26.601Z,96.93
2018-02-10T06:20:28.347Z,94.60
2018-02-10T06:30:29.899Z,90.40
2018-02-10T06:40:32.225Z,101.67
2018-02-10T06:50:40.793Z,85.50
2018-02-10T07:00:42.483Z,81.37
2018-02-10T07:10:44.000Z,88.00
2018-02-10T07:20:45.703Z,75.40
2018-02-10T07:30:47.361Z,90.87
2018-02-10T07:40:48.895Z,79.60
2018-02-10T07:50:50.424Z,75.47
2018-02-10T08:00:52.005Z,90.10
2018-02-10T08:10:53.738Z,84.83
2018-02-10T08:20:55.282Z,93.00
2018-02-10T08:30:57.557Z,72.67
2018-02-10T08:40:59.340Z,87.03
2018-02-10T08:51:00.896Z,66.63
2018-02-10T09:01:03.334Z,74.37
2018-02-10T09:11:04.878Z,62.43
2018-02-10T09:21:06.461Z,58.70
2018-02-10T09:31:14.896Z,57.43
2018-02-10T09:41:16.487Z,69.77
2018-02-10T09:51:18.822Z,64.40
2018-02-10T10:01:20.371Z,62.97
2018-02-10T10:11:21.952Z,57.33
2018-02-10T10:21:23.516Z,47.17
2018-02-10T10:31:25.193Z,60.07
2018-02-10T10:41:27.636Z,53.70
2018-02-10T10:51:29.925Z,59.90
2018-02-10T11:01:31.513Z,48.83
2018-02-10T11:11:33.009Z,45.20
2018-02-10T11:21:34.590Z,40.03
2018-02-10T11:31:36.184Z,38.50
2018-02-10T11:41:37.768Z,31.30
2018-02-10T11:51:39.412Z,47.27
2018-02-10T12:01:40.949Z,31.67
2018-02-10T12:11:42.599Z,42.57
2018-02-10T12:21:44.290Z,33.00
2018-02-10T12:31:45.895Z,28.97
2018-02-10T12:41:47.490Z,28.67
2018-02-10T12:51:49.047Z,38.33
2018-02-10T13:01:51.348Z,29.67
2018-02-10T13:11:52.901Z,24.47
2018-02-10T13:21:54.509Z,35.03
2018-02-10T13:31:56.079Z,24.80
2018-02-10T13:41:58.454Z,24.23
2018-02-10T13:52:00.014Z,26.43
2018-02-10T14:02:01.616Z,35.33
2018-02-10T14:12:03.180Z,26.60
2018-02-10T14:22:05.576Z,18.23
2018-02-10T14:32:07.267Z,20.93
2018-02-10T14:42:08.878Z,30.20
2018-02-10T14:52:10.503Z,37.13
2018-02-10T15:02:12.173Z,30.13
2018-02-10T15:12:14.137Z,46.43
2018-02-10T15:22:16.480Z,36.73
2018-02-10T15:32:36.358Z,30.00
2018-02-10T15:42:37.922Z,34.00
2018-02-10T15:52:39.513Z,30.50
2018-02-10T16:02:41.062Z,29.43
2018-02-10T16:12:42.597Z,35.30
2018-02-10T16:22:44.174Z,26.27
2018-02-10T16:32:46.488Z,30.63
2018-02-10T16:42:48.015Z,51.93
2018-02-10T16:52:49.724Z,48.90
2018-02-10T17:02:51.315Z,42.90
2018-02-10T17:12:52.960Z,42.03
2018-02-10T17:22:54.546Z,39.53
2018-02-10T17:32:56.108Z,48.57
2018-02-10T17:42:57.670Z,45.97
2018-02-10T17:52:59.237Z,46.60
2018-02-10T18:03:00.792Z,46.07
2018-02-10T18:13:03.265Z,44.83
2018-02-10T18:23:04.894Z,43.83
2018-02-10T18:33:06.474Z,31.63
2018-02-10T18:43:08.058Z,47.77
2018-02-10T18:53:09.611Z,45.37
2018-02-10T19:03:11.859Z,46.57
2018-02-10T19:13:13.489Z,77.60
2018-02-10T19:23:15.180Z,54.40
2018-02-10T19:33:16.834Z,88.23
2018-02-10T19:43:19.187Z,60.43
2018-02-10T19:53:20.775Z,55.70
2018-02-10T20:03:22.422Z,83.27
2018-02-10T20:13:23.981Z,88.67
2018-02-10T20:23:25.572Z,58.00
2018-02-10T20:33:27.202Z,49.10
2018-02-10T20:43:28.806Z,65.37
2018-02-10T20:53:30.402Z,51.27
2018-02-10T21:03:32.025Z,57.07
2018-02-10T21:13:33.627Z,41.47
2018-02-10T21:23:35.146Z,40.07
2018-02-10T21:33:36.772Z,37.67
2018-02-10T21:43:39.146Z,30.90
2018-02-10T21:53:40.787Z,34.10
2018-02-10T22:03:43.126Z,36.17
2018-02-10T22:13:44.786Z,30.00
2018-02-10T22:23:46.344Z,38.80
2018-02-10T22:33:48.050Z,40.93
2018-02-10T22:43:49.604Z,28.53
2018-02-10T22:53:51.966Z,24.33
2018-02-10T23:03:54.352Z,29.63
2018-02-10T23:13:56.685Z,29.70
2018-02-10T23:23:58.427Z,33.17
2018-02-10T23:34:00.064Z,32.03
2018-02-10T23:44:02.365Z,32.50
2018-02-10T23:54:03.937Z,27.53
